Main page
METAR-TAF:

METAR-TAF

Airports :

Ushuaia – Malvinas Argentinas International Airport

Ushuaia, Argentina

latitude: 54-48S, longitude: 068-19W, elevation: 16 m

Current weather observation

The report was made 51 minutes ago, at 05:00 UTC
Wind 6 kt from the Northwest
Temperature 1°C
Humidity 93%
Pressure 1023 hPa
Visibility 10 km or more

METAR: SAWH 170500Z 32006KT 9999 01/M00 Q1023

Time: 02:51 (05:51 UTC)

Forecast

The report was made 6 hours and 51 minutes ago, at 23:00 UTC
Forecast valid from 17 at 00 UTC to 17 at 24 UTC
Wind 15 kt from the West with gusts up to 25 kt
Visibility 10 km or more
Scattered clouds at a height of 4500 ft
Scattered clouds at a height of 6000 ft
Probability 40% :
Temporary
from 17 at 06 UTC to 17 at 10 UTC
Broken clouds at a height of 3000 ft
Overcast at a height of 4000 ft
light snow

TAF: SAWH 162300Z 1700/1724 27015G25KT 9999 SCT045 SCT060 TX02/1718Z TNM04/1711Z PROB40 TEMPO 1706/1710 -SN BKN030 OVC040

Weather observations and forecasts of more than 4000 airports (METAR and TAF reports).

The available stations are represented by yellow and red dots on the map.

Hover mouse over dot to see the name of the station.

Then click to see weather observations and forecasts.

To change the map : click on the green buttons with a black cross to zoom in, on the green button with a dash to zoom out, or on the green arrows for adjacent maps.


METAR-TAF: